createdAt,value
2019-02-15T00:00:40.627Z,18.75
2019-02-15T00:03:07.562Z,17.00
2019-02-15T00:05:33.391Z,20.32
2019-02-15T00:07:59.188Z,15.90
2019-02-15T00:10:25.014Z,17.47
2019-02-15T00:12:50.827Z,17.40
2019-02-15T00:15:19.418Z,14.70
2019-02-15T00:17:49.691Z,13.38
2019-02-15T00:20:17.707Z,16.00
2019-02-15T00:22:43.537Z,16.50
2019-02-15T00:25:09.362Z,19.43
2019-02-15T00:27:35.155Z,17.07
2019-02-15T00:30:08.344Z,13.23
2019-02-15T00:32:34.262Z,11.73
2019-02-15T00:35:00.256Z,11.80
2019-02-15T00:37:26.363Z,9.78
2019-02-15T00:39:52.167Z,20.92
2019-02-15T00:42:18.261Z,16.00
2019-02-15T00:44:44.347Z,16.48
2019-02-15T00:47:15.112Z,16.27
2019-02-15T00:49:41.521Z,20.92
2019-02-15T00:52:12.130Z,11.83
2019-02-15T00:54:40.124Z,16.17
2019-02-15T00:57:17.078Z,15.25
2019-02-15T00:59:54.101Z,26.60
2019-02-15T01:02:21.851Z,10.32
2019-02-15T01:04:55.624Z,13.85
2019-02-15T01:07:40.194Z,13.80
2019-02-15T01:10:14.175Z,11.03
2019-02-15T01:12:41.892Z,13.40
2019-02-15T01:15:07.695Z,15.98
2019-02-15T01:17:33.520Z,23.30
2019-02-15T01:19:59.428Z,25.03
2019-02-15T01:22:25.295Z,27.60
2019-02-15T01:24:51.235Z,16.33
2019-02-15T01:27:19.236Z,14.50
2019-02-15T01:29:46.924Z,22.40
2019-02-15T01:32:29.800Z,14.65
2019-02-15T01:35:06.133Z,14.10
2019-02-15T01:37:33.868Z,16.10
2019-02-15T01:40:10.996Z,24.07
2019-02-15T01:42:45.226Z,17.07
2019-02-15T01:45:22.291Z,15.25
2019-02-15T01:47:48.375Z,17.60
2019-02-15T01:50:14.192Z,14.85
2019-02-15T01:52:39.996Z,14.63
2019-02-15T01:55:06.064Z,16.77
2019-02-15T01:57:31.906Z,13.60
2019-02-15T01:59:57.796Z,9.93
2019-02-15T02:02:25.435Z,14.00
2019-02-15T02:04:51.239Z,20.45
2019-02-15T02:07:17.016Z,12.23
2019-02-15T02:09:42.816Z,17.70
2019-02-15T02:12:09.064Z,18.90
2019-02-15T02:14:35.134Z,25.92
2019-02-15T02:17:01.244Z,16.65
2019-02-15T02:19:27.067Z,15.32
2019-02-15T02:21:53.139Z,14.40
2019-02-15T02:24:18.963Z,19.37
2019-02-15T02:26:44.786Z,12.77
2019-02-15T02:29:10.837Z,14.30
2019-02-15T02:31:36.785Z,12.10
2019-02-15T02:34:02.733Z,14.00
2019-02-15T02:36:46.479Z,15.53
2019-02-15T02:39:12.276Z,17.77
2019-02-15T02:41:38.376Z,16.93
2019-02-15T02:44:04.221Z,12.20
2019-02-15T02:46:30.053Z,17.50
2019-02-15T02:48:55.838Z,15.07
2019-02-15T02:51:21.673Z,14.23
2019-02-15T02:53:47.475Z,15.00
2019-02-15T02:56:13.500Z,22.77
2019-02-15T02:58:39.569Z,11.53
2019-02-15T03:01:05.380Z,12.55
2019-02-15T03:03:31.178Z,14.70
2019-02-15T03:05:56.986Z,16.33
2019-02-15T03:08:23.079Z,17.40
2019-02-15T03:10:49.167Z,14.78
2019-02-15T03:13:14.952Z,16.30
2019-02-15T03:15:40.778Z,15.00
2019-02-15T03:18:06.837Z,14.90
2019-02-15T03:20:32.639Z,12.93
2019-02-15T03:22:58.662Z,13.67
2019-02-15T03:25:24.464Z,12.47
2019-02-15T03:27:50.787Z,15.70
2019-02-15T03:30:16.614Z,13.85
2019-02-15T03:32:42.430Z,12.83
2019-02-15T03:35:08.583Z,12.30
2019-02-15T03:37:36.304Z,16.15
2019-02-15T03:40:06.358Z,12.47
2019-02-15T03:42:32.441Z,13.22
2019-02-15T03:44:58.257Z,11.50
2019-02-15T03:47:24.892Z,19.43
2019-02-15T03:49:50.710Z,17.10
2019-02-15T03:52:16.766Z,17.40
2019-02-15T03:54:42.586Z,10.65
2019-02-15T03:57:08.420Z,14.57
2019-02-15T03:59:34.228Z,12.50
2019-02-15T04:02:00.132Z,16.47
2019-02-15T04:04:25.936Z,16.30
2019-02-15T04:06:51.958Z,15.53
2019-02-15T04:09:17.795Z,15.55
2019-02-15T04:11:46.640Z,9.07
2019-02-15T04:14:12.678Z,10.90
2019-02-15T04:16:41.243Z,14.13
2019-02-15T04:19:07.047Z,11.38
2019-02-15T04:21:35.060Z,12.03
2019-02-15T04:24:01.211Z,12.33
2019-02-15T04:26:32.013Z,13.20
2019-02-15T04:28:57.839Z,12.25
2019-02-15T04:31:23.640Z,12.60
2019-02-15T04:33:49.507Z,10.73
2019-02-15T04:36:15.289Z,13.07
2019-02-15T04:38:44.098Z,10.40
2019-02-15T04:41:10.204Z,13.15
2019-02-15T04:43:39.353Z,16.87
2019-02-15T04:46:05.122Z,14.98
2019-02-15T04:48:31.210Z,10.97
2019-02-15T04:50:57.015Z,13.32
2019-02-15T04:53:25.214Z,10.63
2019-02-15T04:55:51.290Z,14.15
2019-02-15T04:58:20.171Z,13.13
2019-02-15T05:00:45.991Z,13.80
2019-02-15T05:03:19.509Z,13.47
2019-02-15T05:05:44.992Z,9.40
2019-02-15T05:08:10.794Z,11.77
2019-02-15T05:10:36.615Z,14.50
2019-02-15T05:13:02.425Z,12.30
2019-02-15T05:15:28.218Z,16.67
2019-02-15T05:17:54.002Z,15.40
2019-02-15T05:20:22.861Z,15.93
2019-02-15T05:22:48.693Z,12.50
2019-02-15T05:25:17.301Z,14.23
2019-02-15T05:27:43.383Z,11.25
2019-02-15T05:30:12.216Z,19.82
2019-02-15T05:32:38.288Z,11.20
2019-02-15T05:35:07.307Z,9.00
2019-02-15T05:37:33.416Z,12.65
2019-02-15T05:40:00.606Z,10.78
2019-02-15T05:42:26.483Z,10.40
2019-02-15T05:44:52.340Z,13.70
2019-02-15T05:47:18.456Z,14.57
2019-02-15T05:49:44.376Z,12.75
2019-02-15T05:52:12.970Z,12.93
2019-02-15T05:54:38.746Z,15.18
2019-02-15T05:57:04.563Z,13.23
2019-02-15T05:59:30.372Z,13.57
2019-02-15T06:01:56.202Z,12.37
2019-02-15T06:04:25.235Z,12.67
2019-02-15T06:06:51.046Z,34.27
2019-02-15T06:09:19.809Z,18.23
2019-02-15T06:11:45.869Z,21.33
2019-02-15T06:14:14.634Z,19.10
2019-02-15T06:16:40.459Z,10.32
2019-02-15T06:19:09.661Z,9.70
2019-02-15T06:21:35.502Z,19.45
2019-02-15T06:24:04.286Z,11.33
2019-02-15T06:26:30.345Z,9.30
2019-02-15T06:28:59.217Z,15.23
2019-02-15T06:31:25.011Z,13.85
2019-02-15T06:33:52.885Z,7.07
2019-02-15T06:36:18.670Z,9.53
2019-02-15T06:38:49.119Z,16.23
2019-02-15T06:41:14.919Z,10.25
2019-02-15T06:43:43.587Z,10.77
2019-02-15T06:46:09.394Z,14.90
2019-02-15T06:48:36.362Z,8.90
2019-02-15T06:51:02.445Z,21.05
2019-02-15T06:53:31.530Z,28.92
2019-02-15T06:55:57.342Z,14.28
2019-02-15T06:58:23.417Z,15.23
2019-02-15T07:01:06.366Z,13.95
2019-02-15T07:03:35.415Z,10.32
2019-02-15T07:06:01.273Z,17.73
2019-02-15T07:08:27.336Z,15.80
2019-02-15T07:10:53.175Z,23.95
2019-02-15T07:13:19.199Z,27.93
2019-02-15T07:15:45.327Z,274.70
2019-02-15T07:18:11.413Z,135.68
2019-02-15T07:20:37.502Z,60.17
2019-02-15T07:23:03.613Z,75.70
2019-02-15T07:25:29.419Z,84.52
2019-02-15T07:27:55.260Z,78.57
2019-02-15T07:30:21.047Z,84.37
2019-02-15T07:32:46.869Z,64.13
2019-02-15T07:35:12.975Z,43.80
2019-02-15T07:37:38.797Z,28.52
2019-02-15T07:40:06.799Z,27.97
2019-02-15T07:42:32.590Z,25.65
2019-02-15T07:44:58.431Z,29.33
2019-02-15T07:47:24.261Z,23.10
2019-02-15T07:49:50.091Z,19.50
2019-02-15T07:52:18.921Z,21.67
2019-02-15T07:54:44.735Z,24.43
2019-02-15T07:57:13.298Z,20.33
2019-02-15T07:59:39.191Z,20.97
2019-02-15T08:02:08.167Z,22.50
2019-02-15T08:04:33.974Z,25.70
2019-02-15T08:07:02.879Z,18.30
2019-02-15T08:09:28.948Z,17.07
2019-02-15T08:11:55.044Z,11.37
2019-02-15T08:14:20.870Z,15.63
2019-02-15T08:16:46.703Z,19.00
2019-02-15T08:19:13.592Z,18.50
2019-02-15T08:21:39.393Z,19.70
2019-02-15T08:24:08.391Z,16.17
2019-02-15T08:26:34.207Z,19.73
2019-02-15T08:29:04.891Z,20.50
2019-02-15T08:31:30.685Z,21.23
2019-02-15T08:33:58.370Z,23.83
2019-02-15T08:36:24.482Z,29.30
2019-02-15T08:38:53.305Z,23.70
2019-02-15T08:41:19.392Z,30.20
2019-02-15T08:43:48.124Z,31.17
2019-02-15T08:46:13.944Z,33.47
2019-02-15T08:48:45.943Z,24.70
2019-02-15T08:51:07.519Z,27.23
2019-02-15T08:53:33.415Z,35.00
2019-02-15T08:55:59.245Z,28.30
2019-02-15T08:58:25.038Z,27.23
2019-02-15T09:00:55.644Z,26.43
2019-02-15T09:03:22.064Z,24.80
2019-02-15T09:05:50.725Z,33.30
2019-02-15T09:08:16.547Z,38.30
2019-02-15T09:10:45.391Z,26.57
2019-02-15T09:13:11.185Z,14.10
2019-02-15T09:15:40.289Z,11.63
2019-02-15T09:18:06.090Z,7.60
2019-02-15T09:20:35.173Z,6.67
2019-02-15T09:23:00.986Z,13.50
2019-02-15T09:25:26.760Z,6.57
2019-02-15T09:28:12.997Z,3.90
2019-02-15T09:30:39.084Z,5.47
2019-02-15T09:33:04.964Z,7.17
2019-02-15T09:35:30.873Z,6.60
2019-02-15T09:37:56.723Z,6.40
2019-02-15T09:40:22.519Z,4.87
2019-02-15T09:42:48.615Z,7.10
2019-02-15T09:45:14.713Z,3.80
2019-02-15T09:47:40.932Z,2.90
2019-02-15T09:50:09.843Z,4.23
2019-02-15T09:52:36.619Z,2.63
2019-02-15T09:55:02.675Z,5.80
2019-02-15T09:57:28.526Z,5.57
2019-02-15T09:59:54.324Z,3.63
2019-02-15T10:02:20.113Z,2.83
2019-02-15T10:04:45.936Z,9.70
2019-02-15T10:07:11.716Z,3.80
2019-02-15T10:09:37.804Z,4.03
2019-02-15T10:12:03.627Z,6.13
2019-02-15T10:14:29.684Z,6.77
2019-02-15T10:16:55.761Z,7.20
2019-02-15T10:19:22.600Z,9.30
2019-02-15T10:21:48.812Z,5.00
2019-02-15T10:24:14.935Z,3.70
2019-02-15T10:26:40.748Z,5.67
2019-02-15T10:29:09.840Z,10.03
2019-02-15T10:31:35.666Z,2.10
2019-02-15T10:34:04.443Z,20.47
2019-02-15T10:36:30.258Z,5.80
2019-02-15T10:38:56.146Z,5.43
2019-02-15T10:41:21.939Z,5.30
2019-02-15T10:43:48.040Z,7.33
2019-02-15T10:46:15.358Z,3.00
2019-02-15T10:48:41.157Z,6.33
2019-02-15T10:51:09.608Z,3.90
2019-02-15T10:53:35.448Z,8.10
2019-02-15T10:56:07.045Z,4.03
2019-02-15T10:58:32.844Z,2.80
2019-02-15T11:01:01.621Z,4.73
2019-02-15T11:03:27.635Z,4.73
2019-02-15T11:05:56.561Z,2.80
2019-02-15T11:08:22.638Z,4.23
2019-02-15T11:10:48.459Z,5.73
2019-02-15T11:13:14.308Z,6.63
2019-02-15T11:15:40.390Z,3.07
2019-02-15T11:18:06.421Z,4.40
2019-02-15T11:20:32.252Z,10.00
2019-02-15T11:23:01.088Z,8.17
2019-02-15T11:25:26.917Z,5.27
2019-02-15T11:27:54.871Z,5.10
2019-02-15T11:30:20.863Z,4.97
2019-02-15T11:32:49.990Z,4.77
2019-02-15T11:35:15.825Z,5.60
2019-02-15T11:37:44.889Z,6.30
2019-02-15T11:40:13.890Z,6.27
2019-02-15T11:42:39.686Z,7.43
2019-02-15T11:45:08.388Z,4.93
2019-02-15T11:47:34.207Z,6.63
2019-02-15T11:50:00.364Z,5.53
2019-02-15T11:52:26.268Z,6.70
2019-02-15T11:54:52.342Z,2.97
2019-02-15T11:57:18.170Z,2.60
2019-02-15T11:59:47.282Z,2.37
2019-02-15T12:02:13.376Z,2.37
2019-02-15T12:04:42.026Z,2.77
2019-02-15T12:07:07.863Z,3.43
2019-02-15T12:09:34.891Z,3.50
2019-02-15T12:12:00.713Z,3.87
2019-02-15T12:14:31.087Z,3.57
2019-02-15T12:17:05.250Z,1.53
2019-02-15T12:19:24.873Z,1.70
2019-02-15T12:21:50.676Z,1.83
2019-02-15T12:24:19.867Z,3.10
2019-02-15T12:26:45.661Z,2.13
2019-02-15T12:29:11.707Z,3.90
2019-02-15T12:31:37.817Z,2.60
2019-02-15T12:34:03.856Z,2.07
2019-02-15T12:36:31.244Z,2.30
2019-02-15T12:38:57.069Z,3.57
2019-02-15T12:41:25.731Z,2.83
2019-02-15T12:43:51.573Z,5.53
2019-02-15T12:46:22.503Z,4.80
2019-02-15T12:48:48.584Z,10.87
2019-02-15T12:51:17.584Z,4.13
2019-02-15T12:53:43.429Z,2.10
2019-02-15T12:56:11.983Z,2.70
2019-02-15T12:58:37.832Z,2.23
2019-02-15T13:01:06.489Z,3.60
2019-02-15T13:03:32.298Z,3.17
2019-02-15T13:05:58.116Z,4.03
2019-02-15T13:08:24.187Z,7.43
2019-02-15T13:10:50.111Z,4.30
2019-02-15T13:13:16.244Z,2.00
2019-02-15T13:15:44.049Z,2.10
2019-02-15T13:18:13.018Z,3.10
2019-02-15T13:20:38.856Z,7.10
2019-02-15T13:23:07.677Z,2.03
2019-02-15T13:25:36.824Z,2.60
2019-02-15T13:28:01.252Z,2.60
2019-02-15T13:30:27.055Z,2.60
2019-02-15T13:32:55.965Z,8.53
2019-02-15T13:35:22.833Z,6.67
2019-02-15T13:37:51.939Z,3.00
2019-02-15T13:40:17.746Z,4.53
2019-02-15T13:42:43.553Z,4.13
2019-02-15T13:45:10.860Z,6.50
2019-02-15T13:47:36.938Z,1.97
2019-02-15T13:50:04.963Z,2.90
2019-02-15T13:52:30.790Z,2.40
2019-02-15T13:54:56.608Z,3.83
2019-02-15T13:57:22.489Z,1.80
2019-02-15T13:59:50.944Z,2.47
2019-02-15T14:02:16.755Z,2.67
2019-02-15T14:04:47.220Z,4.50
2019-02-15T14:07:17.234Z,5.87
2019-02-15T14:09:43.082Z,1.70
2019-02-15T14:12:08.894Z,7.13
2019-02-15T14:14:34.809Z,7.27
2019-02-15T14:17:00.935Z,1.47
2019-02-15T14:19:26.756Z,1.10
2019-02-15T14:21:52.585Z,4.00
2019-02-15T14:24:18.387Z,8.33
2019-02-15T14:26:47.088Z,8.63
2019-02-15T14:29:12.931Z,5.50
2019-02-15T14:31:41.826Z,2.00
2019-02-15T14:34:07.900Z,2.90
2019-02-15T14:36:36.331Z,2.17
2019-02-15T14:39:04.233Z,2.50
2019-02-15T14:41:33.091Z,2.07
2019-02-15T14:43:58.924Z,3.70
2019-02-15T14:46:27.526Z,4.40
2019-02-15T14:48:53.609Z,3.33
2019-02-15T14:51:22.722Z,3.50
2019-02-15T14:53:48.533Z,1.80
2019-02-15T14:56:14.360Z,2.90
2019-02-15T14:58:40.162Z,11.70
2019-02-15T15:01:05.949Z,5.53
2019-02-15T15:03:32.289Z,2.30
2019-02-15T15:05:58.125Z,2.50
2019-02-15T15:08:27.162Z,2.60
2019-02-15T15:10:53.012Z,1.60
2019-02-15T15:13:23.754Z,3.53
2019-02-15T15:15:49.563Z,2.50
2019-02-15T15:18:18.635Z,2.87
2019-02-15T15:20:44.428Z,3.33
2019-02-15T15:23:13.303Z,5.33
2019-02-15T15:25:39.096Z,4.20
2019-02-15T15:28:07.665Z,4.77
2019-02-15T15:30:33.824Z,8.13
2019-02-15T15:32:59.631Z,4.97
2019-02-15T15:35:26.272Z,7.23
2019-02-15T15:37:52.104Z,3.93
2019-02-15T15:40:18.214Z,7.30
2019-02-15T15:42:44.079Z,9.20
2019-02-15T15:45:12.797Z,5.23
2019-02-15T15:47:38.819Z,3.63
2019-02-15T15:50:11.305Z,2.10
2019-02-15T15:52:37.173Z,8.90
2019-02-15T15:55:04.052Z,9.23
2019-02-15T15:57:29.878Z,3.60
2019-02-15T15:59:59.219Z,11.07
2019-02-15T16:02:25.284Z,11.83
2019-02-15T16:04:51.131Z,5.47
2019-02-15T16:07:16.936Z,6.17
2019-02-15T16:09:42.773Z,2.83
2019-02-15T16:12:08.804Z,6.10
2019-02-15T16:14:34.877Z,3.90
2019-02-15T16:17:03.739Z,4.03
2019-02-15T16:19:29.538Z,3.20
2019-02-15T16:21:58.126Z,2.80
2019-02-15T16:24:23.906Z,3.77
2019-02-15T16:26:52.483Z,2.37
2019-02-15T16:29:18.266Z,4.53
2019-02-15T16:31:48.590Z,8.70
2019-02-15T16:34:14.416Z,4.70
2019-02-15T16:36:43.321Z,1.97
2019-02-15T16:39:09.092Z,3.30
2019-02-15T16:41:36.933Z,3.10
2019-02-15T16:44:02.754Z,4.70
2019-02-15T16:46:28.552Z,2.97
2019-02-15T16:48:54.374Z,2.70
2019-02-15T16:51:20.196Z,3.13
2019-02-15T16:53:49.333Z,5.03
2019-02-15T16:56:15.421Z,3.10
2019-02-15T16:58:43.983Z,5.40
2019-02-15T17:01:09.807Z,8.63
2019-02-15T17:03:38.342Z,4.90
2019-02-15T17:06:04.172Z,8.33
2019-02-15T17:08:33.019Z,5.57
2019-02-15T17:10:59.025Z,5.13
2019-02-15T17:13:27.657Z,3.27
2019-02-15T17:15:53.721Z,5.17
2019-02-15T17:18:22.636Z,1.73
2019-02-15T17:20:48.426Z,2.57
2019-02-15T17:23:14.236Z,3.97
2019-02-15T17:25:40.343Z,1.50
2019-02-15T17:28:11.142Z,2.80
2019-02-15T17:30:37.029Z,2.77
2019-02-15T17:33:02.850Z,4.33
2019-02-15T17:35:28.640Z,4.43
2019-02-15T17:37:54.447Z,5.20
2019-02-15T17:40:25.193Z,3.30
2019-02-15T17:42:51.041Z,5.40
2019-02-15T17:45:19.615Z,5.17
2019-02-15T17:47:45.477Z,2.13
2019-02-15T17:50:14.333Z,4.73
2019-02-15T17:52:40.162Z,4.30
2019-02-15T17:55:09.310Z,3.53
2019-02-15T17:57:35.393Z,1.82
2019-02-15T18:00:01.570Z,5.20
2019-02-15T18:02:27.794Z,6.67
2019-02-15T18:04:53.626Z,3.55
2019-02-15T18:07:19.414Z,4.43
2019-02-15T18:09:45.226Z,4.13
2019-02-15T18:12:14.183Z,4.40
2019-02-15T18:14:40.022Z,54.03
2019-02-15T18:17:08.852Z,12.90
2019-02-15T18:19:34.806Z,5.28
2019-02-15T18:22:03.138Z,6.93
2019-02-15T18:24:29.011Z,4.60
2019-02-15T18:26:57.076Z,3.60
2019-02-15T18:29:23.148Z,4.95
2019-02-15T18:31:56.425Z,2.87
2019-02-15T18:34:22.551Z,4.72
2019-02-15T18:36:48.673Z,3.62
2019-02-15T18:39:14.513Z,2.00
2019-02-15T18:41:40.339Z,2.83
2019-02-15T18:44:06.221Z,5.00
2019-02-15T18:46:32.046Z,2.50
2019-02-15T18:49:00.952Z,5.13
2019-02-15T18:51:26.771Z,1.95
2019-02-15T18:53:55.884Z,5.83
2019-02-15T18:56:21.765Z,4.22
2019-02-15T18:58:50.438Z,7.03
2019-02-15T19:01:16.236Z,3.00
2019-02-15T19:03:44.816Z,2.90
2019-02-15T19:06:10.609Z,3.75
2019-02-15T19:08:37.546Z,2.60
2019-02-15T19:11:03.462Z,5.62
2019-02-15T19:13:29.567Z,3.43
2019-02-15T19:15:57.854Z,4.95
2019-02-15T19:18:23.950Z,9.48
2019-02-15T19:20:49.747Z,6.20
2019-02-15T19:23:15.839Z,4.90
2019-02-15T19:25:44.493Z,4.17
2019-02-15T19:28:10.306Z,4.97
2019-02-15T19:30:40.782Z,5.20
2019-02-15T19:33:06.966Z,4.85
2019-02-15T19:35:36.295Z,4.30
2019-02-15T19:38:02.145Z,3.87
2019-02-15T19:40:28.374Z,5.20
2019-02-15T19:43:00.705Z,4.37
2019-02-15T19:45:26.525Z,5.55
2019-02-15T19:47:52.314Z,7.40
2019-02-15T19:50:18.133Z,6.30
2019-02-15T19:52:45.689Z,9.00
2019-02-15T19:55:11.790Z,4.58
2019-02-15T19:57:37.623Z,6.62
2019-02-15T20:00:07.245Z,6.03
2019-02-15T20:02:33.051Z,6.58
2019-02-15T20:04:58.858Z,6.60
2019-02-15T20:07:25.301Z,6.63
2019-02-15T20:09:51.124Z,7.15
2019-02-15T20:12:20.226Z,5.57
2019-02-15T20:14:46.306Z,4.15
2019-02-15T20:17:15.138Z,7.05
2019-02-15T20:19:48.222Z,6.53
2019-02-15T20:22:08.662Z,3.72
2019-02-15T20:24:34.559Z,5.23
2019-02-15T20:27:00.356Z,8.03
2019-02-15T20:29:26.155Z,12.57
2019-02-15T20:31:52.021Z,4.67
2019-02-15T20:34:20.595Z,6.43
2019-02-15T20:36:46.736Z,4.40
2019-02-15T20:39:15.860Z,6.75
2019-02-15T20:41:41.670Z,7.17
2019-02-15T20:44:11.312Z,6.20
2019-02-15T20:46:37.423Z,8.23
2019-02-15T20:49:06.303Z,9.20
2019-02-15T20:51:32.132Z,4.42
2019-02-15T20:54:01.020Z,7.00
2019-02-15T20:56:26.822Z,7.40
2019-02-15T20:58:55.539Z,5.40
2019-02-15T21:01:21.340Z,5.37
2019-02-15T21:03:47.149Z,5.70
2019-02-15T21:06:14.584Z,7.77
2019-02-15T21:08:40.624Z,8.08
2019-02-15T21:11:06.413Z,7.20
2019-02-15T21:13:32.538Z,5.83
2019-02-15T21:16:01.398Z,6.92
2019-02-15T21:18:27.196Z,6.03
2019-02-15T21:20:56.064Z,5.47
2019-02-15T21:23:21.894Z,13.90
2019-02-15T21:25:51.072Z,13.23
2019-02-15T21:28:16.883Z,18.70
2019-02-15T21:30:45.759Z,7.20
2019-02-15T21:33:11.577Z,8.45
2019-02-15T21:35:40.486Z,9.93
2019-02-15T21:38:06.423Z,6.30
2019-02-15T21:40:32.240Z,7.83
2019-02-15T21:42:58.059Z,7.70
2019-02-15T21:45:23.999Z,10.30
2019-02-15T21:47:53.305Z,11.13
2019-02-15T21:50:19.106Z,13.13
2019-02-15T21:52:48.060Z,10.33
2019-02-15T21:55:15.073Z,8.40
2019-02-15T21:57:40.890Z,8.73
2019-02-15T22:00:21.298Z,13.20
2019-02-15T22:02:47.123Z,7.55
2019-02-15T22:05:13.701Z,5.43
2019-02-15T22:07:39.526Z,11.15
2019-02-15T22:10:07.929Z,7.80
2019-02-15T22:12:34.072Z,10.43
2019-02-15T22:14:59.867Z,7.70
2019-02-15T22:17:25.975Z,7.70
2019-02-15T22:19:52.024Z,12.55
2019-02-15T22:22:17.834Z,6.17
2019-02-15T22:24:43.653Z,7.93
2019-02-15T22:27:09.744Z,8.37
2019-02-15T22:29:35.562Z,9.55
2019-02-15T22:32:01.375Z,12.50
2019-02-15T22:34:27.181Z,8.50
2019-02-15T22:36:53.005Z,6.87
2019-02-15T22:39:20.507Z,6.33
2019-02-15T22:41:46.324Z,7.80
2019-02-15T22:44:15.311Z,9.67
2019-02-15T22:46:41.095Z,8.83
2019-02-15T22:49:43.107Z,9.70
2019-02-15T22:52:01.319Z,6.58
2019-02-15T22:54:27.125Z,9.87
2019-02-15T22:56:53.220Z,14.57
2019-02-15T22:59:19.295Z,8.33
2019-02-15T23:01:45.379Z,8.85
2019-02-15T23:04:11.462Z,6.33
2019-02-15T23:06:37.356Z,10.95
2019-02-15T23:09:05.046Z,7.50
2019-02-15T23:11:31.318Z,7.75
2019-02-15T23:13:57.414Z,11.40
2019-02-15T23:16:23.503Z,7.58
2019-02-15T23:18:49.415Z,6.55
2019-02-15T23:21:15.251Z,8.87
2019-02-15T23:23:41.348Z,8.30
2019-02-15T23:26:07.165Z,7.92
2019-02-15T23:28:32.988Z,12.73
2019-02-15T23:30:59.105Z,7.77
2019-02-15T23:33:24.907Z,7.08
2019-02-15T23:35:51.018Z,7.97
2019-02-15T23:38:16.837Z,8.10
2019-02-15T23:40:42.939Z,10.53
2019-02-15T23:43:09.028Z,14.43
2019-02-15T23:45:34.875Z,9.30
2019-02-15T23:48:00.973Z,8.53
2019-02-15T23:50:26.764Z,10.30
2019-02-15T23:52:52.822Z,8.97
2019-02-15T23:55:18.895Z,9.10
2019-02-15T23:57:48.181Z,12.93
